Terminal Aerodrome Forecast
Issued by NWS Knoxville/Tri Cities, TN

Home | Current Version | Previous Version | Text Only | Print | Product List | Glossary On
Versions: 1 2 3 4 5 6 7 8 9 10 11 12 13 14 15
000
FTUS44 KMRX 241121
TAFTYS
TAF
KTYS 241121Z 2412/2512 20006KT P6SM VCSH OVC035
     FM241600 22010G17KT P6SM SCT030 BKN050
     FM250000 20007KT P6SM OVC050
     FM251000 22014KT P6SM -SHRA OVC025=

USA.gov is the U.S. government's official web portal to all federal, state and local government web resources and services.